sensor_id;sensor_type;location;lat;lon;timestamp;temperature;humidity
4520;DHT22;2272;49.226;8.108;2023-04-24T00:01:02;9.60;99.90
4520;DHT22;2272;49.226;8.108;2023-04-24T00:03:29;9.70;99.90
4520;DHT22;2272;49.226;8.108;2023-04-24T00:05:55;9.70;99.90
4520;DHT22;2272;49.226;8.108;2023-04-24T00:08:24;9.80;99.90
4520;DHT22;2272;49.226;8.108;2023-04-24T00:10:51;9.80;99.90
4520;DHT22;2272;49.226;8.108;2023-04-24T00:13:18;9.80;99.90
4520;DHT22;2272;49.226;8.108;2023-04-24T00:15:45;9.80;99.90
4520;DHT22;2272;49.226;8.108;2023-04-24T00:18:13;9.80;99.90
4520;DHT22;2272;49.226;8.108;2023-04-24T00:20:40;9.90;99.90
4520;DHT22;2272;49.226;8.108;2023-04-24T00:23:06;9.90;99.90
4520;DHT22;2272;49.226;8.108;2023-04-24T00:25:33;9.90;99.90
4520;DHT22;2272;49.226;8.108;2023-04-24T00:28:00;9.80;99.90
4520;DHT22;2272;49.226;8.108;2023-04-24T00:30:27;9.80;99.90
4520;DHT22;2272;49.226;8.108;2023-04-24T00:32:55;9.80;99.90
4520;DHT22;2272;49.226;8.108;2023-04-24T00:35:23;9.80;99.90
4520;DHT22;2272;49.226;8.108;2023-04-24T00:37:49;9.70;99.90
4520;DHT22;2272;49.226;8.108;2023-04-24T00:40:16;9.60;99.90
4520;DHT22;2272;49.226;8.108;2023-04-24T00:42:43;9.60;99.90
4520;DHT22;2272;49.226;8.108;2023-04-24T00:45:10;9.50;99.90
4520;DHT22;2272;49.226;8.108;2023-04-24T00:47:37;9.50;99.90
4520;DHT22;2272;49.226;8.108;2023-04-24T00:50:06;9.50;99.90
4520;DHT22;2272;49.226;8.108;2023-04-24T00:52:34;9.50;99.90
4520;DHT22;2272;49.226;8.108;2023-04-24T00:55:02;9.40;99.90
4520;DHT22;2272;49.226;8.108;2023-04-24T00:57:30;9.40;99.90
4520;DHT22;2272;49.226;8.108;2023-04-24T00:59:57;9.30;99.90
4520;DHT22;2272;49.226;8.108;2023-04-24T01:02:24;9.20;99.90
4520;DHT22;2272;49.226;8.108;2023-04-24T01:04:51;9.20;99.90
4520;DHT22;2272;49.226;8.108;2023-04-24T01:07:19;9.20;99.90
4520;DHT22;2272;49.226;8.108;2023-04-24T01:09:48;9.20;99.90
4520;DHT22;2272;49.226;8.108;2023-04-24T01:12:16;9.30;99.90
4520;DHT22;2272;49.226;8.108;2023-04-24T01:14:43;9.30;99.90
4520;DHT22;2272;49.226;8.108;2023-04-24T01:17:10;9.30;99.90
4520;DHT22;2272;49.226;8.108;2023-04-24T01:19:37;9.40;99.90
4520;DHT22;2272;49.226;8.108;2023-04-24T01:22:09;9.40;99.90
4520;DHT22;2272;49.226;8.108;2023-04-24T01:24:37;9.40;99.90
4520;DHT22;2272;49.226;8.108;2023-04-24T01:27:04;9.40;99.90
4520;DHT22;2272;49.226;8.108;2023-04-24T01:29:31;9.40;99.90
4520;DHT22;2272;49.226;8.108;2023-04-24T01:31:58;9.50;99.90
4520;DHT22;2272;49.226;8.108;2023-04-24T01:34:25;9.50;99.90
4520;DHT22;2272;49.226;8.108;2023-04-24T01:36:52;9.50;99.90
4520;DHT22;2272;49.226;8.108;2023-04-24T01:39:21;9.50;99.90
4520;DHT22;2272;49.226;8.108;2023-04-24T01:41:48;9.50;99.90
4520;DHT22;2272;49.226;8.108;2023-04-24T01:44:15;9.50;99.90
4520;DHT22;2272;49.226;8.108;2023-04-24T01:46:43;9.60;99.90
4520;DHT22;2272;49.226;8.108;2023-04-24T01:49:09;9.60;99.90
4520;DHT22;2272;49.226;8.108;2023-04-24T01:51:36;9.60;99.90
4520;DHT22;2272;49.226;8.108;2023-04-24T01:54:03;9.60;99.90
4520;DHT22;2272;49.226;8.108;2023-04-24T01:56:33;9.60;99.90
4520;DHT22;2272;49.226;8.108;2023-04-24T01:59:00;9.50;99.90
4520;DHT22;2272;49.226;8.108;2023-04-24T02:01:33;9.50;99.90
4520;DHT22;2272;49.226;8.108;2023-04-24T02:04:00;9.50;99.90
4520;DHT22;2272;49.226;8.108;2023-04-24T02:06:27;9.50;99.90
4520;DHT22;2272;49.226;8.108;2023-04-24T02:08:54;9.50;99.90
4520;DHT22;2272;49.226;8.108;2023-04-24T02:11:20;9.50;99.90
4520;DHT22;2272;49.226;8.108;2023-04-24T02:13:48;9.50;99.90
4520;DHT22;2272;49.226;8.108;2023-04-24T02:16:15;9.50;99.90
4520;DHT22;2272;49.226;8.108;2023-04-24T02:18:42;9.50;99.90
4520;DHT22;2272;49.226;8.108;2023-04-24T02:21:09;9.50;99.90
4520;DHT22;2272;49.226;8.108;2023-04-24T02:23:35;9.50;99.90
4520;DHT22;2272;49.226;8.108;2023-04-24T02:26:05;9.60;99.90
4520;DHT22;2272;49.226;8.108;2023-04-24T02:28:32;9.60;99.90
4520;DHT22;2272;49.226;8.108;2023-04-24T02:31:00;9.70;99.90
4520;DHT22;2272;49.226;8.108;2023-04-24T02:33:26;9.70;99.90
4520;DHT22;2272;49.226;8.108;2023-04-24T02:35:53;9.60;99.90
4520;DHT22;2272;49.226;8.108;2023-04-24T02:38:20;9.40;99.90
4520;DHT22;2272;49.226;8.108;2023-04-24T02:40:46;9.30;99.90
4520;DHT22;2272;49.226;8.108;2023-04-24T02:43:13;9.20;99.90
4520;DHT22;2272;49.226;8.108;2023-04-24T02:45:40;9.10;99.90
4520;DHT22;2272;49.226;8.108;2023-04-24T02:48:08;9.00;99.90
4520;DHT22;2272;49.226;8.108;2023-04-24T02:50:34;8.90;99.90
4520;DHT22;2272;49.226;8.108;2023-04-24T02:53:01;8.80;99.90
4520;DHT22;2272;49.226;8.108;2023-04-24T02:55:28;8.90;99.90
4520;DHT22;2272;49.226;8.108;2023-04-24T02:57:54;8.80;99.90
4520;DHT22;2272;49.226;8.108;2023-04-24T03:00:21;8.80;99.90
4520;DHT22;2272;49.226;8.108;2023-04-24T03:02:48;8.70;99.90
4520;DHT22;2272;49.226;8.108;2023-04-24T03:05:16;8.60;99.90
4520;DHT22;2272;49.226;8.108;2023-04-24T03:07:43;8.40;99.90
4520;DHT22;2272;49.226;8.108;2023-04-24T03:10:10;8.40;99.90
4520;DHT22;2272;49.226;8.108;2023-04-24T03:12:37;8.40;99.90
4520;DHT22;2272;49.226;8.108;2023-04-24T03:15:04;8.30;99.90
4520;DHT22;2272;49.226;8.108;2023-04-24T03:17:31;8.30;99.90
4520;DHT22;2272;49.226;8.108;2023-04-24T03:19:58;8.20;99.90
4520;DHT22;2272;49.226;8.108;2023-04-24T03:22:26;8.10;99.90
4520;DHT22;2272;49.226;8.108;2023-04-24T03:24:53;8.00;99.90
4520;DHT22;2272;49.226;8.108;2023-04-24T03:27:20;7.80;99.90
4520;DHT22;2272;49.226;8.108;2023-04-24T03:29:46;7.80;99.90
4520;DHT22;2272;49.226;8.108;2023-04-24T03:32:13;7.70;99.90
4520;DHT22;2272;49.226;8.108;2023-04-24T03:34:40;7.60;99.90
4520;DHT22;2272;49.226;8.108;2023-04-24T03:37:06;7.50;99.90
4520;DHT22;2272;49.226;8.108;2023-04-24T03:39:34;7.40;99.90
4520;DHT22;2272;49.226;8.108;2023-04-24T03:42:01;7.30;99.90
4520;DHT22;2272;49.226;8.108;2023-04-24T03:44:28;7.30;99.90
4520;DHT22;2272;49.226;8.108;2023-04-24T03:46:55;7.30;99.90
4520;DHT22;2272;49.226;8.108;2023-04-24T03:49:21;7.20;99.90
4520;DHT22;2272;49.226;8.108;2023-04-24T03:51:48;7.20;99.90
4520;DHT22;2272;49.226;8.108;2023-04-24T03:54:15;7.20;99.90
4520;DHT22;2272;49.226;8.108;2023-04-24T03:56:43;7.30;99.90
4520;DHT22;2272;49.226;8.108;2023-04-24T03:59:09;7.30;99.90
4520;DHT22;2272;49.226;8.108;2023-04-24T04:01:36;7.30;99.90
4520;DHT22;2272;49.226;8.108;2023-04-24T04:04:03;7.30;99.90
4520;DHT22;2272;49.226;8.108;2023-04-24T04:06:30;7.20;99.90
4520;DHT22;2272;49.226;8.108;2023-04-24T04:08:57;7.20;99.90
4520;DHT22;2272;49.226;8.108;2023-04-24T04:11:24;7.20;99.90
4520;DHT22;2272;49.226;8.108;2023-04-24T04:13:52;7.20;99.90
4520;DHT22;2272;49.226;8.108;2023-04-24T04:16:19;7.20;99.90
4520;DHT22;2272;49.226;8.108;2023-04-24T04:18:45;7.30;99.90
4520;DHT22;2272;49.226;8.108;2023-04-24T04:21:12;7.30;99.90
4520;DHT22;2272;49.226;8.108;2023-04-24T04:23:39;7.30;99.90
4520;DHT22;2272;49.226;8.108;2023-04-24T04:26:06;7.30;99.90
4520;DHT22;2272;49.226;8.108;2023-04-24T04:28:33;7.20;99.90
4520;DHT22;2272;49.226;8.108;2023-04-24T04:31:01;7.20;99.90
4520;DHT22;2272;49.226;8.108;2023-04-24T04:33:28;7.20;99.90
4520;DHT22;2272;49.226;8.108;2023-04-24T04:35:54;7.20;99.90
4520;DHT22;2272;49.226;8.108;2023-04-24T04:38:23;7.20;99.90
4520;DHT22;2272;49.226;8.108;2023-04-24T04:40:49;7.30;99.90
4520;DHT22;2272;49.226;8.108;2023-04-24T04:43:16;7.30;99.90
4520;DHT22;2272;49.226;8.108;2023-04-24T04:45:43;7.50;99.90
4520;DHT22;2272;49.226;8.108;2023-04-24T04:48:11;7.60;99.90
4520;DHT22;2272;49.226;8.108;2023-04-24T04:50:39;7.80;99.90
4520;DHT22;2272;49.226;8.108;2023-04-24T04:53:05;7.90;99.90
4520;DHT22;2272;49.226;8.108;2023-04-24T04:55:32;8.10;99.90
4520;DHT22;2272;49.226;8.108;2023-04-24T04:57:59;8.30;99.90
4520;DHT22;2272;49.226;8.108;2023-04-24T05:00:26;8.40;99.90
4520;DHT22;2272;49.226;8.108;2023-04-24T05:02:54;8.50;99.90
4520;DHT22;2272;49.226;8.108;2023-04-24T05:05:22;8.60;99.90
4520;DHT22;2272;49.226;8.108;2023-04-24T05:07:49;8.60;99.90
4520;DHT22;2272;49.226;8.108;2023-04-24T05:10:15;8.60;99.90
4520;DHT22;2272;49.226;8.108;2023-04-24T05:12:42;8.70;99.90
4520;DHT22;2272;49.226;8.108;2023-04-24T05:15:09;8.80;99.90
4520;DHT22;2272;49.226;8.108;2023-04-24T05:17:36;9.00;99.90
4520;DHT22;2272;49.226;8.108;2023-04-24T05:20:06;9.10;99.90
4520;DHT22;2272;49.226;8.108;2023-04-24T05:22:34;9.20;99.90
4520;DHT22;2272;49.226;8.108;2023-04-24T05:25:01;9.30;99.90
4520;DHT22;2272;49.226;8.108;2023-04-24T05:27:28;9.40;99.90
4520;DHT22;2272;49.226;8.108;2023-04-24T05:29:54;9.40;99.90
4520;DHT22;2272;49.226;8.108;2023-04-24T05:32:22;9.30;99.90
4520;DHT22;2272;49.226;8.108;2023-04-24T05:34:48;9.30;99.90
4520;DHT22;2272;49.226;8.108;2023-04-24T05:37:15;9.40;99.90
4520;DHT22;2272;49.226;8.108;2023-04-24T05:39:43;9.40;99.90
4520;DHT22;2272;49.226;8.108;2023-04-24T05:42:10;9.40;99.90
4520;DHT22;2272;49.226;8.108;2023-04-24T05:44:37;9.30;99.90
4520;DHT22;2272;49.226;8.108;2023-04-24T05:47:03;9.30;99.90
4520;DHT22;2272;49.226;8.108;2023-04-24T05:49:30;9.20;99.90
4520;DHT22;2272;49.226;8.108;2023-04-24T05:51:57;9.20;99.90
4520;DHT22;2272;49.226;8.108;2023-04-24T05:54:23;9.20;99.90
4520;DHT22;2272;49.226;8.108;2023-04-24T05:56:52;9.20;99.90
4520;DHT22;2272;49.226;8.108;2023-04-24T05:59:19;9.30;99.90
4520;DHT22;2272;49.226;8.108;2023-04-24T06:01:46;9.30;99.90
4520;DHT22;2272;49.226;8.108;2023-04-24T06:04:13;9.40;99.90
4520;DHT22;2272;49.226;8.108;2023-04-24T06:06:40;9.60;99.90
4520;DHT22;2272;49.226;8.108;2023-04-24T06:09:06;9.70;99.90
4520;DHT22;2272;49.226;8.108;2023-04-24T06:11:33;9.80;99.90
4520;DHT22;2272;49.226;8.108;2023-04-24T06:14:01;10.10;99.90
4520;DHT22;2272;49.226;8.108;2023-04-24T06:16:28;10.50;99.90
4520;DHT22;2272;49.226;8.108;2023-04-24T06:19:04;10.60;99.90
4520;DHT22;2272;49.226;8.108;2023-04-24T06:21:31;10.70;99.90
4520;DHT22;2272;49.226;8.108;2023-04-24T06:23:57;10.60;99.90
4520;DHT22;2272;49.226;8.108;2023-04-24T06:26:24;10.50;99.90
4520;DHT22;2272;49.226;8.108;2023-04-24T06:28:52;10.30;99.90
4520;DHT22;2272;49.226;8.108;2023-04-24T06:31:21;10.10;99.90
4520;DHT22;2272;49.226;8.108;2023-04-24T06:33:48;9.80;99.90
4520;DHT22;2272;49.226;8.108;2023-04-24T06:36:14;9.40;99.90
4520;DHT22;2272;49.226;8.108;2023-04-24T06:38:41;9.20;99.90
4520;DHT22;2272;49.226;8.108;2023-04-24T06:41:09;9.10;99.90
4520;DHT22;2272;49.226;8.108;2023-04-24T06:43:36;9.00;99.90
4520;DHT22;2272;49.226;8.108;2023-04-24T06:46:02;8.90;99.90
4520;DHT22;2272;49.226;8.108;2023-04-24T06:48:30;8.90;99.90
4520;DHT22;2272;49.226;8.108;2023-04-24T06:50:57;8.90;99.90
4520;DHT22;2272;49.226;8.108;2023-04-24T06:53:24;9.00;99.90
4520;DHT22;2272;49.226;8.108;2023-04-24T06:55:50;9.10;99.90
4520;DHT22;2272;49.226;8.108;2023-04-24T06:58:17;9.30;99.90
4520;DHT22;2272;49.226;8.108;2023-04-24T07:00:44;9.30;99.90
4520;DHT22;2272;49.226;8.108;2023-04-24T07:03:11;9.20;99.90
4520;DHT22;2272;49.226;8.108;2023-04-24T07:05:39;9.10;99.90
4520;DHT22;2272;49.226;8.108;2023-04-24T07:08:07;9.00;99.90
4520;DHT22;2272;49.226;8.108;2023-04-24T07:10:36;9.00;99.90
4520;DHT22;2272;49.226;8.108;2023-04-24T07:13:03;8.80;99.90
4520;DHT22;2272;49.226;8.108;2023-04-24T07:15:30;8.80;99.90
4520;DHT22;2272;49.226;8.108;2023-04-24T07:17:57;8.90;99.90
4520;DHT22;2272;49.226;8.108;2023-04-24T07:20:24;9.00;99.90
4520;DHT22;2272;49.226;8.108;2023-04-24T07:22:52;9.20;99.90
4520;DHT22;2272;49.226;8.108;2023-04-24T07:25:20;9.30;99.90
4520;DHT22;2272;49.226;8.108;2023-04-24T07:27:47;9.50;99.90
4520;DHT22;2272;49.226;8.108;2023-04-24T07:30:14;9.70;99.90
4520;DHT22;2272;49.226;8.108;2023-04-24T07:32:41;10.00;99.90
4520;DHT22;2272;49.226;8.108;2023-04-24T07:35:08;10.30;99.90
4520;DHT22;2272;49.226;8.108;2023-04-24T07:37:35;10.70;99.90
4520;DHT22;2272;49.226;8.108;2023-04-24T07:40:04;11.30;99.90
4520;DHT22;2272;49.226;8.108;2023-04-24T07:42:31;11.70;99.90
4520;DHT22;2272;49.226;8.108;2023-04-24T07:44:59;11.90;99.90
4520;DHT22;2272;49.226;8.108;2023-04-24T07:47:26;12.00;99.90
4520;DHT22;2272;49.226;8.108;2023-04-24T07:49:53;11.80;99.90
4520;DHT22;2272;49.226;8.108;2023-04-24T07:52:20;11.30;99.90
4520;DHT22;2272;49.226;8.108;2023-04-24T07:54:47;10.80;99.90
4520;DHT22;2272;49.226;8.108;2023-04-24T07:57:16;10.50;99.90
4520;DHT22;2272;49.226;8.108;2023-04-24T07:59:43;10.30;99.90
4520;DHT22;2272;49.226;8.108;2023-04-24T08:02:09;10.30;99.90
4520;DHT22;2272;49.226;8.108;2023-04-24T08:04:37;10.30;99.90
4520;DHT22;2272;49.226;8.108;2023-04-24T08:07:03;10.40;99.90
4520;DHT22;2272;49.226;8.108;2023-04-24T08:09:30;10.50;99.90
4520;DHT22;2272;49.226;8.108;2023-04-24T08:11:57;10.90;99.90
4520;DHT22;2272;49.226;8.108;2023-04-24T08:14:25;11.00;99.90
4520;DHT22;2272;49.226;8.108;2023-04-24T08:16:53;11.50;99.90
4520;DHT22;2272;49.226;8.108;2023-04-24T08:19:20;12.00;99.90
4520;DHT22;2272;49.226;8.108;2023-04-24T08:21:47;12.40;99.90
4520;DHT22;2272;49.226;8.108;2023-04-24T08:24:13;12.50;99.90
4520;DHT22;2272;49.226;8.108;2023-04-24T08:26:40;12.50;99.90
4520;DHT22;2272;49.226;8.108;2023-04-24T08:29:07;12.60;99.90
4520;DHT22;2272;49.226;8.108;2023-04-24T08:31:35;12.90;99.90
4520;DHT22;2272;49.226;8.108;2023-04-24T08:34:02;13.50;99.90
4520;DHT22;2272;49.226;8.108;2023-04-24T08:36:28;14.00;99.90
4520;DHT22;2272;49.226;8.108;2023-04-24T08:38:56;14.10;99.90
4520;DHT22;2272;49.226;8.108;2023-04-24T08:41:23;14.00;99.90
4520;DHT22;2272;49.226;8.108;2023-04-24T08:43:51;13.40;99.90
4520;DHT22;2272;49.226;8.108;2023-04-24T08:46:19;12.90;99.90
4520;DHT22;2272;49.226;8.108;2023-04-24T08:48:48;12.40;99.90
4520;DHT22;2272;49.226;8.108;2023-04-24T08:51:17;12.00;99.90
4520;DHT22;2272;49.226;8.108;2023-04-24T08:53:45;11.70;99.90
4520;DHT22;2272;49.226;8.108;2023-04-24T08:56:13;11.60;99.90
4520;DHT22;2272;49.226;8.108;2023-04-24T08:58:40;11.40;99.90
4520;DHT22;2272;49.226;8.108;2023-04-24T09:01:07;11.20;99.90
4520;DHT22;2272;49.226;8.108;2023-04-24T09:03:35;10.90;99.90
4520;DHT22;2272;49.226;8.108;2023-04-24T09:06:04;10.60;99.90
4520;DHT22;2272;49.226;8.108;2023-04-24T09:08:36;10.80;99.90
4520;DHT22;2272;49.226;8.108;2023-04-24T09:11:02;11.00;99.90
4520;DHT22;2272;49.226;8.108;2023-04-24T09:13:30;11.10;99.90
4520;DHT22;2272;49.226;8.108;2023-04-24T09:15:58;11.00;99.90
4520;DHT22;2272;49.226;8.108;2023-04-24T09:18:26;11.00;99.90
4520;DHT22;2272;49.226;8.108;2023-04-24T09:21:00;11.30;99.90
4520;DHT22;2272;49.226;8.108;2023-04-24T09:23:30;11.80;99.90
4520;DHT22;2272;49.226;8.108;2023-04-24T09:25:57;12.30;99.90
4520;DHT22;2272;49.226;8.108;2023-04-24T09:28:26;12.80;99.90
4520;DHT22;2272;49.226;8.108;2023-04-24T09:31:05;13.20;99.90
4520;DHT22;2272;49.226;8.108;2023-04-24T09:33:32;13.50;99.90
4520;DHT22;2272;49.226;8.108;2023-04-24T09:35:59;13.90;99.90
4520;DHT22;2272;49.226;8.108;2023-04-24T09:38:35;13.90;99.90
4520;DHT22;2272;49.226;8.108;2023-04-24T09:41:03;13.60;99.90
4520;DHT22;2272;49.226;8.108;2023-04-24T09:43:31;13.40;99.90
4520;DHT22;2272;49.226;8.108;2023-04-24T09:45:59;13.10;99.90
4520;DHT22;2272;49.226;8.108;2023-04-24T09:48:31;12.70;99.90
4520;DHT22;2272;49.226;8.108;2023-04-24T09:50:59;12.20;99.90
4520;DHT22;2272;49.226;8.108;2023-04-24T09:53:27;11.80;99.90
4520;DHT22;2272;49.226;8.108;2023-04-24T09:55:55;11.50;99.90
4520;DHT22;2272;49.226;8.108;2023-04-24T09:58:25;11.50;99.90
4520;DHT22;2272;49.226;8.108;2023-04-24T10:00:53;11.50;99.90
4520;DHT22;2272;49.226;8.108;2023-04-24T10:03:24;11.20;99.90
4520;DHT22;2272;49.226;8.108;2023-04-24T10:05:52;10.80;99.90
4520;DHT22;2272;49.226;8.108;2023-04-24T10:08:19;10.50;99.90
4520;DHT22;2272;49.226;8.108;2023-04-24T10:10:46;10.50;99.90
4520;DHT22;2272;49.226;8.108;2023-04-24T10:13:15;10.50;99.90
4520;DHT22;2272;49.226;8.108;2023-04-24T10:15:42;10.60;99.90
4520;DHT22;2272;49.226;8.108;2023-04-24T10:18:09;11.00;99.90
4520;DHT22;2272;49.226;8.108;2023-04-24T10:20:37;11.20;99.90
4520;DHT22;2272;49.226;8.108;2023-04-24T10:23:05;11.50;99.90
4520;DHT22;2272;49.226;8.108;2023-04-24T10:25:33;11.70;99.90
4520;DHT22;2272;49.226;8.108;2023-04-24T10:28:04;11.90;99.90
4520;DHT22;2272;49.226;8.108;2023-04-24T10:30:33;11.90;99.90
4520;DHT22;2272;49.226;8.108;2023-04-24T10:33:02;11.90;99.90
4520;DHT22;2272;49.226;8.108;2023-04-24T10:35:31;11.70;99.90
4520;DHT22;2272;49.226;8.108;2023-04-24T10:38:01;11.50;99.90
4520;DHT22;2272;49.226;8.108;2023-04-24T10:40:31;11.10;99.90
4520;DHT22;2272;49.226;8.108;2023-04-24T10:42:59;10.90;99.90
4520;DHT22;2272;49.226;8.108;2023-04-24T10:45:26;11.00;99.90
4520;DHT22;2272;49.226;8.108;2023-04-24T10:47:57;11.30;99.90
4520;DHT22;2272;49.226;8.108;2023-04-24T10:50:26;11.80;99.90
4520;DHT22;2272;49.226;8.108;2023-04-24T10:52:53;11.90;99.90
4520;DHT22;2272;49.226;8.108;2023-04-24T10:55:41;12.00;99.90
4520;DHT22;2272;49.226;8.108;2023-04-24T10:58:09;12.20;99.90
4520;DHT22;2272;49.226;8.108;2023-04-24T11:00:37;12.40;99.90
4520;DHT22;2272;49.226;8.108;2023-04-24T11:03:06;12.60;99.90
4520;DHT22;2272;49.226;8.108;2023-04-24T11:05:53;13.10;99.90
4520;DHT22;2272;49.226;8.108;2023-04-24T11:08:25;13.60;99.90
4520;DHT22;2272;49.226;8.108;2023-04-24T11:10:58;13.80;99.90
4520;DHT22;2272;49.226;8.108;2023-04-24T11:13:26;14.00;99.90
4520;DHT22;2272;49.226;8.108;2023-04-24T11:16:12;14.10;99.90
4520;DHT22;2272;49.226;8.108;2023-04-24T11:18:42;14.40;99.90
4520;DHT22;2272;49.226;8.108;2023-04-24T11:21:11;14.30;99.90
4520;DHT22;2272;49.226;8.108;2023-04-24T11:23:39;14.30;99.90
4520;DHT22;2272;49.226;8.108;2023-04-24T11:26:12;14.40;99.90
4520;DHT22;2272;49.226;8.108;2023-04-24T11:28:46;14.50;99.90
4520;DHT22;2272;49.226;8.108;2023-04-24T11:31:38;14.70;99.90
4520;DHT22;2272;49.226;8.108;2023-04-24T11:34:12;14.70;99.90
4520;DHT22;2272;49.226;8.108;2023-04-24T11:36:39;14.90;99.90
4520;DHT22;2272;49.226;8.108;2023-04-24T11:39:06;14.70;99.90
4520;DHT22;2272;49.226;8.108;2023-04-24T11:41:34;14.60;99.90
4520;DHT22;2272;49.226;8.108;2023-04-24T11:44:03;14.80;99.90
4520;DHT22;2272;49.226;8.108;2023-04-24T11:46:33;14.90;99.90
4520;DHT22;2272;49.226;8.108;2023-04-24T11:49:00;15.00;99.90
4520;DHT22;2272;49.226;8.108;2023-04-24T11:51:28;15.00;99.90
4520;DHT22;2272;49.226;8.108;2023-04-24T11:53:55;14.60;99.90
4520;DHT22;2272;49.226;8.108;2023-04-24T11:56:22;14.40;99.90
4520;DHT22;2272;49.226;8.108;2023-04-24T11:58:52;14.20;99.90
4520;DHT22;2272;49.226;8.108;2023-04-24T12:01:19;14.10;99.90
4520;DHT22;2272;49.226;8.108;2023-04-24T12:03:48;14.00;99.90
4520;DHT22;2272;49.226;8.108;2023-04-24T12:06:16;13.90;99.90
4520;DHT22;2272;49.226;8.108;2023-04-24T12:08:52;14.10;99.90
4520;DHT22;2272;49.226;8.108;2023-04-24T12:11:22;14.50;99.90
4520;DHT22;2272;49.226;8.108;2023-04-24T12:13:49;14.70;99.90
4520;DHT22;2272;49.226;8.108;2023-04-24T12:16:16;14.80;99.90
4520;DHT22;2272;49.226;8.108;2023-04-24T12:18:44;14.80;99.90
4520;DHT22;2272;49.226;8.108;2023-04-24T12:21:18;14.60;99.90
4520;DHT22;2272;49.226;8.108;2023-04-24T12:23:45;14.50;99.90
4520;DHT22;2272;49.226;8.108;2023-04-24T12:26:16;14.90;99.90
4520;DHT22;2272;49.226;8.108;2023-04-24T12:28:47;15.20;99.90
4520;DHT22;2272;49.226;8.108;2023-04-24T12:31:16;15.40;99.90
4520;DHT22;2272;49.226;8.108;2023-04-24T12:33:43;15.60;99.90
4520;DHT22;2272;49.226;8.108;2023-04-24T12:36:10;15.50;99.90
4520;DHT22;2272;49.226;8.108;2023-04-24T12:38:39;15.20;99.90
4520;DHT22;2272;49.226;8.108;2023-04-24T12:41:11;15.10;99.90
4520;DHT22;2272;49.226;8.108;2023-04-24T12:43:50;15.00;99.90
4520;DHT22;2272;49.226;8.108;2023-04-24T12:46:20;15.20;99.90
4520;DHT22;2272;49.226;8.108;2023-04-24T12:48:47;15.50;99.90
4520;DHT22;2272;49.226;8.108;2023-04-24T12:51:15;15.90;99.90
4520;DHT22;2272;49.226;8.108;2023-04-24T12:53:42;16.30;99.90
4520;DHT22;2272;49.226;8.108;2023-04-24T12:56:09;16.50;99.90
4520;DHT22;2272;49.226;8.108;2023-04-24T12:58:36;16.30;99.90
4520;DHT22;2272;49.226;8.108;2023-04-24T13:01:04;16.10;99.90
4520;DHT22;2272;49.226;8.108;2023-04-24T13:03:40;15.90;99.90
4520;DHT22;2272;49.226;8.108;2023-04-24T13:06:07;15.50;99.90
4520;DHT22;2272;49.226;8.108;2023-04-24T13:08:34;15.20;99.90
4520;DHT22;2272;49.226;8.108;2023-04-24T13:11:01;14.90;99.90
4520;DHT22;2272;49.226;8.108;2023-04-24T13:13:28;14.70;99.90
4520;DHT22;2272;49.226;8.108;2023-04-24T13:15:55;14.40;99.90
4520;DHT22;2272;49.226;8.108;2023-04-24T13:18:23;14.00;99.90
4520;DHT22;2272;49.226;8.108;2023-04-24T13:20:51;13.90;99.90
4520;DHT22;2272;49.226;8.108;2023-04-24T13:23:18;14.00;99.90
4520;DHT22;2272;49.226;8.108;2023-04-24T13:25:45;13.90;99.90
4520;DHT22;2272;49.226;8.108;2023-04-24T13:28:12;14.00;99.90
4520;DHT22;2272;49.226;8.108;2023-04-24T13:30:41;14.20;99.90
4520;DHT22;2272;49.226;8.108;2023-04-24T13:33:13;14.40;99.90
4520;DHT22;2272;49.226;8.108;2023-04-24T13:35:45;14.70;99.90
4520;DHT22;2272;49.226;8.108;2023-04-24T13:38:18;15.00;99.90
4520;DHT22;2272;49.226;8.108;2023-04-24T13:40:47;15.30;99.90
4520;DHT22;2272;49.226;8.108;2023-04-24T13:43:13;15.40;99.90
4520;DHT22;2272;49.226;8.108;2023-04-24T13:45:41;15.50;99.90
4520;DHT22;2272;49.226;8.108;2023-04-24T13:48:07;15.80;99.90
4520;DHT22;2272;49.226;8.108;2023-04-24T13:50:35;16.00;99.90
4520;DHT22;2272;49.226;8.108;2023-04-24T13:53:03;16.10;99.90
4520;DHT22;2272;49.226;8.108;2023-04-24T13:55:30;15.80;99.90
4520;DHT22;2272;49.226;8.108;2023-04-24T13:57:57;15.40;99.90
4520;DHT22;2272;49.226;8.108;2023-04-24T14:00:24;14.80;99.90
4520;DHT22;2272;49.226;8.108;2023-04-24T14:02:51;14.20;99.90
4520;DHT22;2272;49.226;8.108;2023-04-24T14:05:18;13.80;99.90
4520;DHT22;2272;49.226;8.108;2023-04-24T14:07:46;13.80;99.90
4520;DHT22;2272;49.226;8.108;2023-04-24T14:10:14;13.70;99.90
4520;DHT22;2272;49.226;8.108;2023-04-24T14:12:41;13.50;99.90
4520;DHT22;2272;49.226;8.108;2023-04-24T14:15:08;13.30;99.90
4520;DHT22;2272;49.226;8.108;2023-04-24T14:17:35;13.10;99.90
4520;DHT22;2272;49.226;8.108;2023-04-24T14:20:02;13.10;99.90
4520;DHT22;2272;49.226;8.108;2023-04-24T14:22:30;13.10;99.90
4520;DHT22;2272;49.226;8.108;2023-04-24T14:24:57;13.10;99.90
4520;DHT22;2272;49.226;8.108;2023-04-24T14:27:25;13.10;99.90
4520;DHT22;2272;49.226;8.108;2023-04-24T14:29:52;13.10;99.90
4520;DHT22;2272;49.226;8.108;2023-04-24T14:32:19;12.90;99.90
4520;DHT22;2272;49.226;8.108;2023-04-24T14:34:46;12.80;99.90
4520;DHT22;2272;49.226;8.108;2023-04-24T14:37:13;12.50;99.90
4520;DHT22;2272;49.226;8.108;2023-04-24T14:39:40;12.20;99.90
4520;DHT22;2272;49.226;8.108;2023-04-24T14:42:06;12.30;99.90
4520;DHT22;2272;49.226;8.108;2023-04-24T14:44:34;12.60;99.90
4520;DHT22;2272;49.226;8.108;2023-04-24T14:47:04;13.00;99.90
4520;DHT22;2272;49.226;8.108;2023-04-24T14:49:31;13.40;99.90
4520;DHT22;2272;49.226;8.108;2023-04-24T14:51:58;13.60;99.90
4520;DHT22;2272;49.226;8.108;2023-04-24T14:54:24;13.60;99.90
4520;DHT22;2272;49.226;8.108;2023-04-24T14:56:51;13.50;99.90
4520;DHT22;2272;49.226;8.108;2023-04-24T14:59:22;13.30;99.90
4520;DHT22;2272;49.226;8.108;2023-04-24T15:01:50;12.90;99.90
4520;DHT22;2272;49.226;8.108;2023-04-24T15:04:18;12.50;99.90
4520;DHT22;2272;49.226;8.108;2023-04-24T15:06:50;12.30;99.90
4520;DHT22;2272;49.226;8.108;2023-04-24T15:09:16;12.00;99.90
4520;DHT22;2272;49.226;8.108;2023-04-24T15:11:43;11.70;99.90
4520;DHT22;2272;49.226;8.108;2023-04-24T15:14:10;11.00;99.90
4520;DHT22;2272;49.226;8.108;2023-04-24T15:16:37;10.30;99.90
4520;DHT22;2272;49.226;8.108;2023-04-24T15:19:06;9.80;99.90
4520;DHT22;2272;49.226;8.108;2023-04-24T15:21:32;9.60;99.90
4520;DHT22;2272;49.226;8.108;2023-04-24T15:23:59;9.60;99.90
4520;DHT22;2272;49.226;8.108;2023-04-24T15:26:26;9.70;99.90
4520;DHT22;2272;49.226;8.108;2023-04-24T15:28:53;10.00;99.90
4520;DHT22;2272;49.226;8.108;2023-04-24T15:31:20;10.20;99.90
4520;DHT22;2272;49.226;8.108;2023-04-24T15:33:48;10.80;99.90
4520;DHT22;2272;49.226;8.108;2023-04-24T15:36:17;11.30;99.90
4520;DHT22;2272;49.226;8.108;2023-04-24T15:38:44;11.70;99.90
4520;DHT22;2272;49.226;8.108;2023-04-24T15:41:11;12.00;99.90
4520;DHT22;2272;49.226;8.108;2023-04-24T15:43:38;12.20;99.90
4520;DHT22;2272;49.226;8.108;2023-04-24T15:46:07;12.30;99.90
4520;DHT22;2272;49.226;8.108;2023-04-24T15:48:34;12.20;99.90
4520;DHT22;2272;49.226;8.108;2023-04-24T15:51:01;12.20;99.90
4520;DHT22;2272;49.226;8.108;2023-04-24T15:53:29;12.10;99.90
4520;DHT22;2272;49.226;8.108;2023-04-24T15:55:58;12.10;99.90
4520;DHT22;2272;49.226;8.108;2023-04-24T15:58:25;12.10;99.90
4520;DHT22;2272;49.226;8.108;2023-04-24T16:00:52;12.20;99.90
4520;DHT22;2272;49.226;8.108;2023-04-24T16:03:20;12.30;99.90
4520;DHT22;2272;49.226;8.108;2023-04-24T16:05:47;12.40;99.90
4520;DHT22;2272;49.226;8.108;2023-04-24T16:08:13;12.30;99.90
4520;DHT22;2272;49.226;8.108;2023-04-24T16:10:42;12.20;99.90
4520;DHT22;2272;49.226;8.108;2023-04-24T16:13:11;12.10;99.90